Time;durP1;ratioP1;P1;durP2;ratioP2;P2;SDS_P1;SDS_P2;PMS_P1;PMS_P2;Temp;Humidity;BMP_temperature;BMP_pressure;BME280_temperature;BME280_humidity;BME280_pressure;Samples;Min_cycle;Max_cycle;Signal;HPM_P1;HPM_P2
2021/08/22 00:00:29;;;;;;;10.45;7.95;;;14.20;99.90;;;;;;5062900;28;20033;-79
2021/08/22 00:02:55;;;;;;;10.40;7.82;;;14.20;99.90;;;;;;5052482;28;20077;-79
2021/08/22 00:05:20;;;;;;;10.05;7.43;;;14.30;99.90;;;;;;5032915;28;20111;-79
2021/08/22 00:07:46;;;;;;;7.50;6.55;;;14.20;99.90;;;;;;5065920;28;20396;-79
2021/08/22 00:10:13;;;;;;;11.00;6.63;;;14.30;99.90;;;;;;5070639;28;20043;-79
2021/08/22 00:12:39;;;;;;;9.05;7.10;;;14.30;99.90;;;;;;5051048;27;20036;-79
2021/08/22 00:15:06;;;;;;;9.57;7.38;;;14.30;99.90;;;;;;5070412;28;20075;-79
2021/08/22 00:17:32;;;;;;;11.98;8.18;;;14.40;99.90;;;;;;5052131;27;20048;-79
2021/08/22 00:19:58;;;;;;;9.80;7.90;;;14.40;99.90;;;;;;5050589;28;20090;-79
2021/08/22 00:22:24;;;;;;;8.77;6.80;;;14.50;99.90;;;;;;5051051;28;20028;-79
2021/08/22 00:24:49;;;;;;;8.38;7.00;;;14.60;99.90;;;;;;5062740;28;20123;-79
2021/08/22 00:27:15;;;;;;;9.95;7.40;;;14.60;99.90;;;;;;5052425;28;20505;-79
2021/08/22 00:29:41;;;;;;;13.65;7.38;;;14.70;99.90;;;;;;5066706;28;20040;-79
2021/08/22 00:32:07;;;;;;;8.57;6.95;;;14.70;99.90;;;;;;5070094;28;20401;-79
2021/08/22 00:34:33;;;;;;;10.93;7.38;;;14.80;99.90;;;;;;5052966;28;20029;-79
2021/08/22 00:37:00;;;;;;;8.85;7.18;;;14.80;99.90;;;;;;5042383;28;20497;-79
2021/08/22 00:39:30;;;;;;;8.20;6.60;;;14.90;99.90;;;;;;5053440;28;20037;-79
2021/08/22 00:41:56;;;;;;;8.98;6.88;;;15.00;99.90;;;;;;5050170;28;20078;-78
2021/08/22 00:44:22;;;;;;;10.43;6.88;;;15.00;99.90;;;;;;5062098;28;20033;-79
2021/08/22 00:46:50;;;;;;;10.15;6.78;;;15.00;99.90;;;;;;5051807;28;20044;-79
2021/08/22 00:49:16;;;;;;;7.55;6.70;;;15.00;99.90;;;;;;5045382;28;20028;-79
2021/08/22 00:51:42;;;;;;;8.05;6.45;;;15.00;99.90;;;;;;5067928;28;20051;-79
2021/08/22 00:54:09;;;;;;;8.50;6.97;;;15.00;99.90;;;;;;5060798;28;20101;-79
2021/08/22 00:56:34;;;;;;;8.65;6.88;;;15.00;99.90;;;;;;5069743;28;20036;-79
2021/08/22 00:59:08;;;;;;;7.72;6.50;;;15.00;99.90;;;;;;5066486;28;20048;-78
2021/08/22 01:01:35;;;;;;;7.63;6.57;;;15.00;99.90;;;;;;5069868;28;20043;-79
2021/08/22 01:04:19;;;;;;;7.63;6.82;;;15.10;99.90;;;;;;5062048;28;20086;-79
2021/08/22 01:07:33;;;;;;;7.22;6.40;;;15.10;99.90;;;;;;5052377;28;20041;-79
2021/08/22 01:10:01;;;;;;;7.88;6.10;;;15.10;99.90;;;;;;5049037;28;20127;-79
2021/08/22 01:12:36;;;;;;;8.65;7.50;;;15.20;99.90;;;;;;5069032;28;20494;-80
2021/08/22 01:15:06;;;;;;;8.98;6.55;;;15.20;99.90;;;;;;5031960;28;20025;-79
2021/08/22 01:17:52;;;;;;;7.05;6.20;;;15.20;99.90;;;;;;5049731;28;20139;-79
2021/08/22 01:20:43;;;;;;;6.85;6.15;;;15.30;99.90;;;;;;5063146;28;20033;-79
2021/08/22 01:23:10;;;;;;;10.45;6.80;;;15.30;99.90;;;;;;5031931;28;20033;-79
2021/08/22 01:25:38;;;;;;;8.10;6.82;;;15.30;99.90;;;;;;5035012;28;20033;-79
2021/08/22 01:28:06;;;;;;;8.13;6.90;;;15.30;99.90;;;;;;5065288;28;20025;-79
2021/08/22 01:30:44;;;;;;;8.05;6.93;;;15.30;99.90;;;;;;5058538;28;20075;-79
2021/08/22 01:33:11;;;;;;;8.73;7.60;;;15.30;99.90;;;;;;5065438;28;20025;-79
2021/08/22 01:35:37;;;;;;;8.60;6.85;;;15.30;99.90;;;;;;5057758;28;20443;-79
2021/08/22 01:38:04;;;;;;;7.90;6.70;;;15.30;99.90;;;;;;5064845;28;20120;-79
2021/08/22 01:40:31;;;;;;;8.52;6.32;;;15.30;99.90;;;;;;5055554;28;20112;-79
2021/08/22 01:42:58;;;;;;;10.18;6.80;;;15.30;99.90;;;;;;5056232;28;20029;-79
2021/08/22 01:45:24;;;;;;;10.90;6.93;;;15.40;99.90;;;;;;5048962;28;20120;-79
2021/08/22 01:47:50;;;;;;;10.15;6.75;;;15.40;99.90;;;;;;5066862;28;20036;-79
2021/08/22 01:50:21;;;;;;;9.93;7.07;;;15.40;99.90;;;;;;5062142;28;20041;-79
2021/08/22 01:52:50;;;;;;;8.48;7.57;;;15.40;99.90;;;;;;5050708;28;20033;-79
2021/08/22 01:55:15;;;;;;;7.88;6.93;;;15.40;99.90;;;;;;5047832;28;20389;-79
2021/08/22 01:57:44;;;;;;;8.88;7.30;;;15.40;99.90;;;;;;5050622;28;20045;-79
2021/08/22 02:00:11;;;;;;;10.07;7.28;;;15.40;99.90;;;;;;5067091;28;20158;-79
2021/08/22 02:02:53;;;;;;;12.27;7.53;;;15.40;99.90;;;;;;5051007;28;20029;-79
2021/08/22 02:05:21;;;;;;;11.48;7.28;;;15.40;99.90;;;;;;5031262;28;20434;-79
2021/08/22 02:07:48;;;;;;;9.68;7.00;;;15.40;99.90;;;;;;5046436;28;20059;-79
2021/08/22 02:10:23;;;;;;;9.32;7.38;;;15.40;99.90;;;;;;5066876;28;20098;-79
2021/08/22 02:12:54;;;;;;;9.38;8.07;;;15.40;99.90;;;;;;5067658;28;20033;-79
2021/08/22 02:15:23;;;;;;;9.43;8.05;;;15.40;99.90;;;;;;5046762;28;20071;-79
2021/08/22 02:17:53;;;;;;;9.18;7.35;;;15.40;99.90;;;;;;5049618;27;20049;-79
2021/08/22 02:20:20;;;;;;;9.52;7.88;;;15.40;99.90;;;;;;5068869;28;20077;-79
2021/08/22 02:22:47;;;;;;;8.80;7.55;;;15.40;99.90;;;;;;5056989;28;20125;-79
2021/08/22 02:25:14;;;;;;;8.20;6.80;;;15.40;99.90;;;;;;5070591;28;20028;-79
2021/08/22 02:27:40;;;;;;;8.52;7.03;;;15.40;99.90;;;;;;5072291;28;20029;-79
2021/08/22 02:30:07;;;;;;;10.32;6.90;;;15.40;99.90;;;;;;5037693;28;20391;-79
2021/08/22 02:32:33;;;;;;;8.30;7.50;;;15.50;99.90;;;;;;5034360;28;20090;-79
2021/08/22 02:34:58;;;;;;;9.73;7.35;;;15.40;99.90;;;;;;5037163;28;20032;-79
2021/08/22 02:37:24;;;;;;;11.60;7.72;;;15.40;99.90;;;;;;5054467;27;20404;-79
2021/08/22 02:39:50;;;;;;;8.15;6.93;;;15.40;99.90;;;;;;5067199;28;20036;-79
2021/08/22 02:42:16;;;;;;;8.93;7.28;;;15.40;99.90;;;;;;5071889;28;20385;-79
2021/08/22 02:44:44;;;;;;;9.85;7.50;;;15.40;99.90;;;;;;5070137;28;20578;-79
2021/08/22 02:47:10;;;;;;;10.55;7.57;;;15.40;99.90;;;;;;5054122;28;20032;-79
2021/08/22 02:49:36;;;;;;;10.82;7.63;;;15.40;99.90;;;;;;5068324;28;20044;-79
2021/08/22 02:52:01;;;;;;;9.32;7.80;;;15.40;99.90;;;;;;5071831;28;20037;-79
2021/08/22 02:54:27;;;;;;;9.32;7.63;;;15.40;99.90;;;;;;5055375;28;20037;-79
2021/08/22 02:56:52;;;;;;;12.13;7.75;;;15.40;99.90;;;;;;5066943;28;20040;-79
2021/08/22 02:59:18;;;;;;;8.15;7.22;;;15.40;99.90;;;;;;5068169;28;20068;-79
2021/08/22 03:01:44;;;;;;;9.23;7.68;;;15.40;99.90;;;;;;5071731;28;20085;-79
2021/08/22 03:04:09;;;;;;;8.48;7.57;;;15.40;99.90;;;;;;5058088;28;20072;-79
2021/08/22 03:06:35;;;;;;;10.52;8.43;;;15.40;99.90;;;;;;5058083;28;20051;-79
2021/08/22 03:09:02;;;;;;;9.02;7.43;;;15.40;99.90;;;;;;5068540;28;20041;-79
2021/08/22 03:11:32;;;;;;;10.40;9.20;;;15.40;99.90;;;;;;5071410;28;20103;-79
2021/08/22 03:13:57;;;;;;;10.68;7.80;;;15.40;99.90;;;;;;5063046;28;20033;-79
2021/08/22 03:16:24;;;;;;;10.20;8.32;;;15.30;99.90;;;;;;5063403;28;20385;-79
2021/08/22 03:18:50;;;;;;;9.90;7.10;;;15.30;99.90;;;;;;5050653;27;20040;-79
2021/08/22 03:21:16;;;;;;;10.60;8.20;;;15.30;99.90;;;;;;5053493;28;20450;-79
2021/08/22 03:23:41;;;;;;;13.45;8.10;;;15.30;99.90;;;;;;5062479;28;20493;-79
2021/08/22 03:26:07;;;;;;;8.25;7.30;;;15.30;99.90;;;;;;5051303;28;20029;-79
2021/08/22 03:28:34;;;;;;;9.18;6.18;;;15.30;99.90;;;;;;5051355;28;20486;-79
2021/08/22 03:31:00;;;;;;;10.07;8.40;;;15.30;99.90;;;;;;5051152;28;20044;-79
2021/08/22 03:33:26;;;;;;;9.15;7.72;;;15.20;99.90;;;;;;5062478;28;20028;-79
2021/08/22 03:35:51;;;;;;;9.50;8.30;;;15.20;99.90;;;;;;5052465;28;20102;-79
2021/08/22 03:38:17;;;;;;;13.52;9.10;;;15.10;99.90;;;;;;5065683;28;20102;-79
2021/08/22 03:40:43;;;;;;;10.23;8.52;;;15.00;99.90;;;;;;5059261;28;20040;-79
2021/08/22 03:43:09;;;;;;;10.88;9.02;;;15.00;99.90;;;;;;5070314;28;20054;-79
2021/08/22 03:45:34;;;;;;;12.02;9.02;;;14.90;99.90;;;;;;5070987;28;20039;-79
2021/08/22 03:48:00;;;;;;;9.88;8.52;;;14.90;99.90;;;;;;5035295;28;20085;-79
2021/08/22 03:50:26;;;;;;;14.38;10.60;;;14.90;99.90;;;;;;5055357;28;20032;-79
2021/08/22 03:52:52;;;;;;;12.50;9.90;;;14.80;99.90;;;;;;5069687;28;20093;-79
2021/08/22 03:55:20;;;;;;;11.50;9.77;;;14.80;99.90;;;;;;5070867;28;20112;-79
2021/08/22 03:57:46;;;;;;;11.75;8.93;;;14.70;99.90;;;;;;5070240;28;20041;-79
2021/08/22 04:00:13;;;;;;;12.50;9.00;;;14.70;99.90;;;;;;5070753;28;20075;-79
2021/08/22 04:02:39;;;;;;;15.15;9.38;;;14.60;99.90;;;;;;5067950;28;20137;-79
2021/08/22 04:05:08;;;;;;;11.30;8.77;;;14.60;99.90;;;;;;5050675;28;20521;-79
2021/08/22 04:07:34;;;;;;;11.40;8.85;;;14.60;99.90;;;;;;5034181;28;20401;-79
2021/08/22 04:10:00;;;;;;;13.43;9.18;;;14.60;99.90;;;;;;5052776;28;20033;-79
2021/08/22 04:12:27;;;;;;;11.90;9.63;;;14.60;99.90;;;;;;5070659;28;20544;-79
2021/08/22 04:14:53;;;;;;;12.32;10.88;;;14.60;99.90;;;;;;5054912;28;20044;-79
2021/08/22 04:17:18;;;;;;;17.38;10.77;;;14.60;99.90;;;;;;5050238;27;20553;-79
2021/08/22 04:19:44;;;;;;;9.65;8.65;;;14.60;99.90;;;;;;5061463;28;20043;-79
2021/08/22 04:22:11;;;;;;;12.95;9.77;;;14.70;99.90;;;;;;5070557;28;20411;-79
2021/08/22 04:24:37;;;;;;;13.90;10.02;;;14.70;99.90;;;;;;5067009;28;20078;-79
2021/08/22 04:27:04;;;;;;;13.13;10.75;;;14.80;99.90;;;;;;5070317;28;20029;-79
2021/08/22 04:29:32;;;;;;;14.30;10.07;;;14.80;99.90;;;;;;5068979;28;20505;-79
2021/08/22 04:31:57;;;;;;;16.33;10.27;;;14.90;99.90;;;;;;5042583;28;20033;-79
2021/08/22 04:34:23;;;;;;;15.10;10.95;;;14.90;99.90;;;;;;5050133;28;20039;-79
2021/08/22 04:36:49;;;;;;;14.45;10.43;;;15.00;99.90;;;;;;5050350;28;20132;-79
2021/08/22 04:39:15;;;;;;;14.48;10.50;;;15.00;99.90;;;;;;5032464;28;20033;-79
2021/08/22 04:41:45;;;;;;;14.18;10.80;;;15.10;99.90;;;;;;5068932;28;20204;-79
2021/08/22 04:44:12;;;;;;;13.93;10.55;;;15.10;99.90;;;;;;5062809;28;20098;-79
2021/08/22 04:46:38;;;;;;;14.00;9.38;;;15.20;99.90;;;;;;5049797;28;20037;-79
2021/08/22 04:49:03;;;;;;;13.27;10.75;;;15.30;99.90;;;;;;5033086;28;20033;-79
2021/08/22 04:51:29;;;;;;;14.80;10.68;;;15.40;99.90;;;;;;5064998;28;20474;-79
2021/08/22 04:53:56;;;;;;;13.48;10.52;;;15.40;99.90;;;;;;5058819;28;20085;-79
2021/08/22 04:56:22;;;;;;;17.08;11.27;;;15.50;99.90;;;;;;5045327;28;20036;-79
2021/08/22 04:58:48;;;;;;;13.57;10.90;;;15.50;99.90;;;;;;5066206;28;20497;-79
2021/08/22 05:01:13;;;;;;;14.73;11.25;;;15.60;99.90;;;;;;5069828;28;20033;-79
2021/08/22 05:03:39;;;;;;;13.32;10.38;;;15.70;99.90;;;;;;5065262;28;20033;-80
2021/08/22 05:06:05;;;;;;;14.70;10.40;;;15.80;99.90;;;;;;5051978;28;20025;-79
2021/08/22 05:08:30;;;;;;;15.82;10.73;;;15.80;99.90;;;;;;5060637;28;20478;-79
2021/08/22 05:10:57;;;;;;;15.95;10.90;;;15.90;99.90;;;;;;5064754;28;20037;-80
2021/08/22 05:13:23;;;;;;;16.80;11.55;;;16.10;99.90;;;;;;5047195;28;20059;-79
2021/08/22 05:15:54;;;;;;;16.90;11.85;;;16.20;99.90;;;;;;5060212;28;20033;-79
2021/08/22 05:18:21;;;;;;;13.93;11.07;;;16.10;99.90;;;;;;5066694;27;20135;-79
2021/08/22 05:20:46;;;;;;;17.25;12.20;;;16.30;99.90;;;;;;5051124;28;20043;-79
2021/08/22 05:23:12;;;;;;;17.45;12.13;;;16.40;99.90;;;;;;5063972;28;20033;-79
2021/08/22 05:25:38;;;;;;;20.48;13.00;;;16.50;99.90;;;;;;5068167;28;20032;-79
2021/08/22 05:28:04;;;;;;;19.67;11.75;;;16.60;99.90;;;;;;5050718;28;20112;-79
2021/08/22 05:30:30;;;;;;;17.23;13.50;;;16.70;99.90;;;;;;5068839;28;20028;-79
2021/08/22 05:32:55;;;;;;;17.40;12.57;;;16.80;99.90;;;;;;5068510;28;20081;-79
2021/08/22 05:35:21;;;;;;;16.58;12.70;;;16.90;99.90;;;;;;5068843;28;20036;-79
2021/08/22 05:37:47;;;;;;;15.57;12.63;;;16.90;99.90;;;;;;5065602;28;20053;-79
2021/08/22 05:40:12;;;;;;;17.20;12.73;;;17.00;99.90;;;;;;5084460;28;20037;-79
2021/08/22 05:42:38;;;;;;;16.25;12.18;;;17.10;99.90;;;;;;5060840;28;21075;-79
2021/08/22 05:45:04;;;;;;;16.42;12.82;;;17.20;99.90;;;;;;5074667;28;20393;-78
2021/08/22 05:47:30;;;;;;;15.68;12.90;;;17.20;99.90;;;;;;5049113;27;20032;-79
2021/08/22 05:49:56;;;;;;;16.40;12.77;;;17.30;99.90;;;;;;5053047;28;20030;-80
2021/08/22 05:52:21;;;;;;;16.92;12.30;;;17.40;99.90;;;;;;5063905;28;20605;-79
2021/08/22 05:54:47;;;;;;;17.33;12.43;;;17.60;99.90;;;;;;5064204;28;20037;-79
2021/08/22 05:57:13;;;;;;;17.50;12.38;;;17.70;99.90;;;;;;5065016;28;20044;-79
2021/08/22 05:59:39;;;;;;;17.08;11.98;;;17.80;99.90;;;;;;5057810;28;20033;-79
2021/08/22 06:02:04;;;;;;;16.52;13.50;;;18.00;99.90;;;;;;5044671;28;20373;-79
2021/08/22 06:04:31;;;;;;;18.23;13.00;;;18.20;99.90;;;;;;5040799;28;20024;-80
2021/08/22 06:06:57;;;;;;;20.02;12.90;;;18.30;99.90;;;;;;5063057;28;20036;-79
2021/08/22 06:09:24;;;;;;;15.40;11.52;;;18.40;99.90;;;;;;5064459;28;20483;-79
2021/08/22 06:11:50;;;;;;;19.13;12.38;;;18.50;99.90;;;;;;5062776;28;20033;-79
2021/08/22 06:14:15;;;;;;;14.82;12.10;;;18.70;99.90;;;;;;5048803;28;20063;-79
2021/08/22 06:16:41;;;;;;;14.75;11.57;;;18.70;99.90;;;;;;5067352;28;20060;-78
2021/08/22 06:19:07;;;;;;;13.13;11.38;;;18.80;99.90;;;;;;5051885;28;20037;-80
2021/08/22 06:21:32;;;;;;;12.75;10.95;;;19.00;99.90;;;;;;5047878;28;20033;-80
2021/08/22 06:23:59;;;;;;;14.00;11.60;;;19.20;99.90;;;;;;5035371;28;20043;-80
2021/08/22 06:26:28;;;;;;;13.52;11.55;;;19.30;99.90;;;;;;5050677;28;20040;-79
2021/08/22 06:28:54;;;;;;;12.10;10.35;;;19.40;99.90;;;;;;5027650;28;20045;-79
2021/08/22 06:31:20;;;;;;;13.02;10.90;;;19.50;99.90;;;;;;5030757;28;20397;-79
2021/08/22 06:33:46;;;;;;;14.90;12.18;;;19.70;99.90;;;;;;5051643;28;20025;-79
2021/08/22 06:36:12;;;;;;;14.02;11.75;;;19.70;99.90;;;;;;5034359;28;20029;-79
2021/08/22 06:38:38;;;;;;;15.70;11.60;;;19.80;99.90;;;;;;5054158;28;20099;-79
2021/08/22 06:41:04;;;;;;;14.05;11.10;;;19.90;99.90;;;;;;5031875;28;20028;-79
2021/08/22 06:43:30;;;;;;;15.18;11.52;;;20.10;99.90;;;;;;5046669;28;20394;-79
2021/08/22 06:45:55;;;;;;;13.95;11.13;;;20.20;99.90;;;;;;5035846;28;20033;-79
2021/08/22 06:48:21;;;;;;;14.23;11.48;;;20.30;99.90;;;;;;5046207;28;20044;-79
2021/08/22 06:50:48;;;;;;;12.88;10.65;;;20.50;99.90;;;;;;5030341;28;20043;-79
2021/08/22 06:53:14;;;;;;;13.70;11.23;;;20.60;99.90;;;;;;5046839;28;20112;-79
2021/08/22 06:55:43;;;;;;;14.15;10.02;;;20.70;99.90;;;;;;5050208;28;20041;-81
2021/08/22 06:58:09;;;;;;;12.95;10.95;;;20.80;99.90;;;;;;5046336;28;20041;-79
2021/08/22 07:00:35;;;;;;;12.25;10.45;;;21.00;99.90;;;;;;5029429;28;20394;-79
2021/08/22 07:03:00;;;;;;;13.98;10.32;;;21.10;99.90;;;;;;5029631;28;20037;-79
2021/08/22 07:05:27;;;;;;;11.30;10.20;;;21.10;99.90;;;;;;5050185;28;20455;-80
2021/08/22 07:07:53;;;;;;;13.90;11.38;;;21.20;99.90;;;;;;5049922;28;20488;-80
2021/08/22 07:10:19;;;;;;;13.05;10.13;;;21.40;99.90;;;;;;5050745;28;20029;-80
2021/08/22 07:12:45;;;;;;;12.55;10.75;;;21.50;98.70;;;;;;5041640;28;20031;-80
2021/08/22 07:15:13;;;;;;;11.25;10.05;;;21.50;99.20;;;;;;5032907;28;20108;-80
2021/08/22 07:17:39;;;;;;;11.63;10.38;;;21.70;99.90;;;;;;5049484;27;20067;-80
2021/08/22 07:20:06;;;;;;;13.57;10.98;;;21.80;98.90;;;;;;5065026;28;20032;-79
2021/08/22 07:22:32;;;;;;;13.05;11.35;;;21.90;98.30;;;;;;5066063;28;20048;-80
2021/08/22 07:24:59;;;;;;;12.07;10.05;;;22.10;97.80;;;;;;5047659;28;20028;-80
2021/08/22 07:27:26;;;;;;;11.07;9.95;;;22.20;98.20;;;;;;5059453;28;20040;-80
2021/08/22 07:29:51;;;;;;;11.32;9.45;;;22.10;95.40;;;;;;5063535;28;20033;-79
2021/08/22 07:32:17;;;;;;;12.02;10.75;;;22.10;96.40;;;;;;5063820;28;20033;-80
2021/08/22 07:34:43;;;;;;;11.30;9.35;;;22.10;96.30;;;;;;5064928;28;20029;-81
2021/08/22 07:37:10;;;;;;;10.85;9.85;;;22.20;96.70;;;;;;5045032;28;20127;-81
2021/08/22 07:39:36;;;;;;;10.77;9.68;;;22.40;95.40;;;;;;5063259;28;20033;-80
2021/08/22 07:42:02;;;;;;;12.93;10.45;;;22.40;93.60;;;;;;5065165;28;20037;-80
2021/08/22 07:44:28;;;;;;;13.35;10.20;;;22.60;93.70;;;;;;5044760;28;20028;-80
2021/08/22 07:46:54;;;;;;;12.07;10.93;;;22.70;90.70;;;;;;5067625;28;20041;-79
2021/08/22 07:49:19;;;;;;;11.25;10.15;;;22.70;90.60;;;;;;5044713;28;20499;-80
2021/08/22 07:51:46;;;;;;;10.70;9.63;;;22.90;92.50;;;;;;5066485;28;20409;-79
2021/08/22 07:54:13;;;;;;;9.98;8.85;;;23.00;90.70;;;;;;5062930;28;20032;-80
2021/08/22 07:56:43;;;;;;;11.38;10.00;;;23.00;87.90;;;;;;5066099;28;20032;-80
2021/08/22 07:59:09;;;;;;;10.38;9.05;;;23.10;87.50;;;;;;5046628;27;20176;-80
2021/08/22 08:01:35;;;;;;;12.88;10.50;;;23.10;86.90;;;;;;5066088;28;20104;-80
2021/08/22 08:04:01;;;;;;;9.48;8.48;;;23.30;86.60;;;;;;5062155;28;20063;-79
2021/08/22 08:06:27;;;;;;;9.27;8.45;;;23.40;81.90;;;;;;5048002;27;20025;-80
2021/08/22 08:08:52;;;;;;;9.90;8.30;;;23.50;74.40;;;;;;5068519;28;20363;-80
2021/08/22 08:11:18;;;;;;;7.97;7.18;;;23.60;75.10;;;;;;5067597;28;20108;-79
2021/08/22 08:13:44;;;;;;;8.70;7.80;;;23.80;74.90;;;;;;5062350;28;20490;-79
2021/08/22 08:16:09;;;;;;;7.95;7.22;;;23.90;73.60;;;;;;5066252;28;20032;-80
2021/08/22 08:18:35;;;;;;;8.15;7.38;;;23.90;70.00;;;;;;5066886;27;20127;-79
2021/08/22 08:21:03;;;;;;;8.65;7.85;;;23.90;70.30;;;;;;5069203;28;20043;-79
2021/08/22 08:23:29;;;;;;;7.85;7.10;;;24.00;72.60;;;;;;5066666;28;20032;-79
2021/08/22 08:25:54;;;;;;;8.70;7.78;;;24.10;68.30;;;;;;5069221;28;20040;-80
2021/08/22 08:28:20;;;;;;;8.40;6.80;;;24.10;68.00;;;;;;5063881;28;20033;-79
2021/08/22 08:30:46;;;;;;;7.78;7.07;;;24.20;66.70;;;;;;5068077;28;20033;-79
2021/08/22 08:33:12;;;;;;;10.32;7.32;;;24.30;68.00;;;;;;5051101;28;20501;-80
2021/08/22 08:35:37;;;;;;;7.55;6.80;;;24.30;69.00;;;;;;5067396;28;20033;-79
2021/08/22 08:38:03;;;;;;;7.47;6.80;;;24.50;66.40;;;;;;5069111;28;20045;-79
2021/08/22 08:40:29;;;;;;;7.43;6.82;;;24.50;64.50;;;;;;5067739;28;20037;-79
2021/08/22 08:43:02;;;;;;;6.63;5.95;;;24.70;67.30;;;;;;5066890;28;20033;-78
2021/08/22 08:45:49;;;;;;;6.53;6.03;;;24.60;63.90;;;;;;5049606;28;20123;-79
2021/08/22 08:48:44;;;;;;;7.80;6.97;;;24.70;66.50;;;;;;5064581;28;20029;-80
2021/08/22 08:51:12;;;;;;;10.75;6.88;;;24.60;59.70;;;;;;5065829;28;20089;-79
2021/08/22 08:53:40;;;;;;;6.82;6.22;;;24.70;60.60;;;;;;5065691;28;20041;-79
2021/08/22 08:56:16;;;;;;;7.03;6.30;;;24.80;63.90;;;;;;5050372;28;20037;-79
2021/08/22 08:58:42;;;;;;;5.78;5.15;;;24.90;62.20;;;;;;5048748;28;20084;-79
2021/08/22 09:01:08;;;;;;;8.07;7.20;;;24.90;59.10;;;;;;5048250;28;20533;-79
2021/08/22 09:03:42;;;;;;;6.47;5.75;;;25.00;61.90;;;;;;5065084;28;20029;-79
2021/08/22 09:06:26;;;;;;;6.40;5.90;;;25.20;60.30;;;;;;5069205;28;20505;-79
2021/08/22 09:09:10;;;;;;;6.43;5.53;;;25.20;60.10;;;;;;5067865;28;20532;-79
2021/08/22 09:12:06;;;;;;;6.20;5.60;;;25.30;59.10;;;;;;5067120;28;20037;-79
2021/08/22 09:15:09;;;;;;;6.53;5.88;;;25.30;56.10;;;;;;5064471;28;20045;-80
2021/08/22 09:18:02;;;;;;;5.53;4.93;;;25.30;57.90;;;;;;5065794;27;20521;-80
2021/08/22 09:20:31;;;;;;;5.07;4.63;;;25.30;56.20;;;;;;5063597;28;20036;-79
2021/08/22 09:23:34;;;;;;;4.32;3.92;;;25.40;56.20;;;;;;5048092;28;20623;-80
2021/08/22 09:26:37;;;;;;;5.28;4.78;;;25.50;53.30;;;;;;5048748;28;20085;-80
2021/08/22 09:29:34;;;;;;;4.93;4.53;;;25.60;53.40;;;;;;5064562;28;20055;-79
2021/08/22 09:32:21;;;;;;;5.53;4.38;;;25.80;54.30;;;;;;5048849;28;20041;-80
2021/08/22 09:35:08;;;;;;;6.10;4.47;;;25.70;52.10;;;;;;5070575;28;20028;-80
2021/08/22 09:38:11;;;;;;;6.00;5.40;;;25.70;50.70;;;;;;5065965;28;20370;-80
2021/08/22 09:41:01;;;;;;;4.85;4.45;;;25.80;51.60;;;;;;5050378;28;20036;-80
2021/08/22 09:44:04;;;;;;;6.47;5.55;;;25.80;51.80;;;;;;5049840;28;20051;-80
2021/08/22 09:47:07;;;;;;;6.47;4.82;;;25.80;53.70;;;;;;5068216;28;20063;-80
2021/08/22 09:50:06;;;;;;;5.32;4.82;;;25.80;53.10;;;;;;5069794;28;20515;-80
2021/08/22 09:53:09;;;;;;;5.20;4.70;;;25.90;52.90;;;;;;5067954;28;20572;-80
2021/08/22 09:56:09;;;;;;;4.60;4.20;;;25.90;51.60;;;;;;5051457;28;20036;-80
2021/08/22 09:58:53;;;;;;;4.80;4.40;;;25.80;51.20;;;;;;5069111;28;20041;-79
2021/08/22 10:01:24;;;;;;;4.80;4.05;;;25.70;48.70;;;;;;5068781;28;20393;-80
2021/08/22 10:04:05;;;;;;;5.47;4.18;;;25.80;47.70;;;;;;5066148;28;20668;-80
2021/08/22 10:06:31;;;;;;;6.40;4.85;;;25.90;49.00;;;;;;5051085;28;20504;-79
2021/08/22 10:09:05;;;;;;;5.53;4.57;;;26.00;46.60;;;;;;5069191;28;20045;-79
2021/08/22 10:11:54;;;;;;;4.93;4.45;;;25.70;47.20;;;;;;5051470;28;20071;-80
2021/08/22 10:14:20;;;;;;;4.20;3.83;;;25.80;47.30;;;;;;5067479;28;20138;-80
2021/08/22 10:16:50;;;;;;;4.88;4.53;;;25.90;47.50;;;;;;5068907;28;20466;-80
2021/08/22 10:19:21;;;;;;;4.30;3.97;;;25.90;50.10;;;;;;5054947;28;20112;-80
2021/08/22 10:22:06;;;;;;;5.03;3.87;;;25.90;49.60;;;;;;5057441;28;20036;-79
2021/08/22 10:24:35;;;;;;;4.45;4.03;;;25.80;49.60;;;;;;5058020;28;20064;-80
2021/08/22 10:27:01;;;;;;;3.78;3.40;;;26.00;49.90;;;;;;5058160;28;20037;-80
2021/08/22 10:29:28;;;;;;;4.32;3.92;;;25.90;50.50;;;;;;5053817;28;20636;-79
2021/08/22 10:31:54;;;;;;;4.03;3.70;;;25.70;49.60;;;;;;5057273;28;20029;-79
2021/08/22 10:34:26;;;;;;;4.60;4.18;;;25.60;49.10;;;;;;5055403;28;20063;-80
2021/08/22 10:36:52;;;;;;;4.22;3.92;;;25.70;49.60;;;;;;5031327;28;20493;-80
2021/08/22 10:39:21;;;;;;;4.75;4.10;;;25.60;51.70;;;;;;5047961;27;20116;-80
2021/08/22 10:41:48;;;;;;;4.47;4.07;;;25.50;51.10;;;;;;5028265;28;20037;-80
2021/08/22 10:44:32;;;;;;;4.85;4.10;;;25.50;51.90;;;;;;5032161;28;20033;-80
2021/08/22 10:46:59;;;;;;;4.95;3.72;;;25.50;51.40;;;;;;5036911;28;20396;-77
2021/08/22 10:49:52;;;;;;;4.88;4.45;;;25.50;48.70;;;;;;5019841;28;20047;-73
2021/08/22 10:52:23;;;;;;;4.68;4.28;;;25.60;50.70;;;;;;5043307;28;20465;-73
2021/08/22 10:55:10;;;;;;;4.40;3.67;;;25.80;50.60;;;;;;5029059;28;20553;-73
2021/08/22 10:57:42;;;;;;;4.57;4.15;;;25.80;48.10;;;;;;5037512;28;20072;-73
2021/08/22 11:00:25;;;;;;;5.95;4.18;;;25.60;46.50;;;;;;5026396;28;20079;-73
2021/08/22 11:02:51;;;;;;;;;;;25.50;46.70;;;;;;5049351;28;20082;-73
2021/08/22 11:05:19;;;;;;;4.22;3.83;;;25.40;47.10;;;;;;5050665;28;19905;-73
2021/08/22 11:07:46;;;;;;;4.00;3.70;;;25.40;47.10;;;;;;5050011;28;20033;-73
2021/08/22 11:10:15;;;;;;;4.75;4.25;;;25.40;48.30;;;;;;5032537;28;20498;-73
2021/08/22 11:12:41;;;;;;;5.90;4.63;;;25.30;49.80;;;;;;5048933;28;20033;-73
2021/08/22 11:15:09;;;;;;;5.13;4.63;;;25.30;51.20;;;;;;5039410;28;20139;-73
2021/08/22 11:17:34;;;;;;;4.60;4.20;;;25.30;52.20;;;;;;5057102;28;20055;-73
2021/08/22 11:20:14;;;;;;;5.47;4.22;;;25.30;52.90;;;;;;5064580;28;20104;-73
2021/08/22 11:22:41;;;;;;;4.35;3.80;;;25.30;50.70;;;;;;5069956;28;20536;-75
2021/08/22 11:25:08;;;;;;;4.30;3.90;;;25.20;53.60;;;;;;5056319;28;20439;-73
2021/08/22 11:27:34;;;;;;;4.72;4.32;;;25.40;54.40;;;;;;5052851;28;20029;-73
2021/08/22 11:30:08;;;;;;;3.70;3.40;;;25.60;54.50;;;;;;5054279;28;20029;-73
2021/08/22 11:32:34;;;;;;;5.50;4.03;;;25.50;51.60;;;;;;5039438;28;20081;-73
2021/08/22 11:35:14;;;;;;;6.43;4.35;;;25.50;50.40;;;;;;5038915;28;20065;-73
2021/08/22 11:37:41;;;;;;;4.28;3.88;;;25.40;51.30;;;;;;5040224;28;20521;-72
2021/08/22 11:40:09;;;;;;;6.00;3.92;;;25.40;52.70;;;;;;5055001;28;20041;-73
2021/08/22 11:42:36;;;;;;;5.18;4.38;;;25.40;51.90;;;;;;5047202;28;20485;-73
2021/08/22 11:45:17;;;;;;;4.47;4.07;;;25.40;53.10;;;;;;5037053;28;20102;-74
2021/08/22 11:47:44;;;;;;;3.65;3.35;;;25.40;54.10;;;;;;5036846;28;20025;-74
2021/08/22 11:50:11;;;;;;;3.83;3.50;;;25.40;52.30;;;;;;5055428;28;20031;-73
2021/08/22 11:52:47;;;;;;;3.75;3.45;;;25.30;51.50;;;;;;5050678;28;20077;-73
2021/08/22 11:55:14;;;;;;;4.32;3.92;;;25.50;53.70;;;;;;5043135;28;20077;-73
2021/08/22 11:57:43;;;;;;;4.22;3.85;;;25.50;52.20;;;;;;5048590;28;20143;-74
2021/08/22 12:00:12;;;;;;;5.18;4.07;;;25.50;50.20;;;;;;5056802;28;20094;-73
2021/08/22 12:02:38;;;;;;;5.05;4.55;;;25.50;50.60;;;;;;5062165;28;21405;-73
2021/08/22 12:05:22;;;;;;;4.85;4.45;;;25.60;53.00;;;;;;5050234;28;20036;-73
2021/08/22 12:07:50;;;;;;;5.00;3.95;;;25.50;53.40;;;;;;5042266;28;20035;-73
2021/08/22 12:10:27;;;;;;;4.18;3.78;;;25.40;52.00;;;;;;5063312;28;20066;-73
2021/08/22 12:12:55;;;;;;;3.72;3.30;;;25.30;52.50;;;;;;5065832;28;20028;-73
2021/08/22 12:15:37;;;;;;;3.92;3.63;;;25.20;52.60;;;;;;5063511;28;20033;-73
2021/08/22 12:18:17;;;;;;;3.80;3.38;;;25.20;52.50;;;;;;5034082;28;20045;-74
2021/08/22 12:20:43;;;;;;;3.85;3.55;;;25.30;53.30;;;;;;5068484;28;20541;-74
2021/08/22 12:23:11;;;;;;;4.40;4.00;;;25.50;53.30;;;;;;5068479;28;20029;-74
2021/08/22 12:25:40;;;;;;;4.82;3.22;;;25.70;54.50;;;;;;5063769;28;20050;-81
2021/08/22 12:28:26;;;;;;;4.90;3.45;;;25.70;52.10;;;;;;5057071;28;20036;-82
2021/08/22 12:31:09;;;;;;;4.25;3.83;;;25.80;51.40;;;;;;5055638;28;20018;-81
2021/08/22 12:33:39;;;;;;;4.18;3.47;;;25.80;52.00;;;;;;5058752;28;20549;-82
2021/08/22 12:36:11;;;;;;;4.18;3.78;;;25.90;51.20;;;;;;5040905;28;20033;-82
2021/08/22 12:38:59;;;;;;;4.30;3.90;;;25.90;50.60;;;;;;5041842;28;20055;-82
2021/08/22 12:41:48;;;;;;;4.57;3.30;;;26.00;50.20;;;;;;5056176;28;20061;-82
2021/08/22 12:44:18;;;;;;;3.70;3.40;;;26.10;49.40;;;;;;5037589;28;20068;-81
2021/08/22 12:46:49;;;;;;;4.13;3.63;;;26.20;49.30;;;;;;5042781;28;20439;-82
2021/08/22 12:49:15;;;;;;;4.47;4.07;;;26.20;49.40;;;;;;5060653;28;20020;-82
2021/08/22 12:51:59;;;;;;;5.07;4.30;;;26.20;49.00;;;;;;5059839;28;20025;-82
2021/08/22 12:54:26;;;;;;;6.25;4.15;;;26.10;49.50;;;;;;5057545;28;20036;-82